หน้าหลัก
METAR-TAF:

METAR-TAF

ท่าอากาศยาน :

อ๊อกซฟอร์ด, อังกฤษ

ละติจูด: 51-50-13N, ลองจิจูด: 1-19-12W, ความสูง: 82 ม.

การสังเกตสภาพอากาศปัจจุบัน

รายงานได้ทำขึ้นเมื่อ 2 ชั่วโมงและ 36 นาทีที่แล้ว ณ เวลา 21:20 UTC
ลม 7 นอตจากเหนือ/ตะวันตกเฉียงเหนือ
อุณหภูมิ 13°C
ความชื้น 82%
ความกดอากาศ 1017 hPa
ทัศนวิสัย 10 กม. หรือมากกว่า
มีเมฆกระจายเป็นบางส่วนที่ความสูง 3400 ฟุต

METAR: EGTK 182120Z 33007KT 9999 SCT034 13/10 Q1017

เวลา: 00:56 (23:56 UTC)

การพยากรณ์

รายงานได้ทำขึ้นเมื่อ 6 ชั่วโมงและ 55 นาทีที่แล้ว ณ เวลา 17:01 UTC
การพยากรณ์มีผลตั้งแต่วันที่ 18 ณ เวลา 18 UTC จนถึงวันที่ 18 ณ เวลา 22 UTC
ลม 8 นอตจากเหนือ
ทัศนวิสัย 10 กม. หรือมากกว่า
มีเมฆน้อยที่ความสูง 4500 ฟุต

TAF: EGTK 181701Z 1818/1822 35008KT 9999 FEW045

สังเกตการณ์สภาพอากาศและพยากรณ์อากาศของสนามบินมากกว่า 4000 แห่ง (รายงาน METAR และ TAF).

สถานีที่ดูได้จะแสดงไว้ด้วยจุดสีเหลืองและสีแดงบนแผนที่.

เลื่อนเมาส์ไปเหนือจุดเพื่อดูชื่อสถานี.

แล้วคลิกเพื่อดูสังเกตการณ์และการพยากรณ์สภาพอากาศ.

ในการเปลี่ยนแผนที่: คลิกที่ปุ่มสีเขียวที่มีกากบาทสีดำเพื่อซูมเข้า; ที่ปุ่มสีเขียวที่มีขีดเพื่อซูมออก; หรือที่ลูกศรสีเขียวเพื่อไปยังแผนที่ที่อยู่ติดกัน.


METAR-TAF: